Glen Easton, West Virginia
Current Conditions -  °F | °C
As of 7:53 PM on Monday 22 Dec 2014 (Local Time) from KHLG Reporting Station
Clear Clear  
Wind Chill: 33°   Ceiling: Unl
Heat Index: 41°   Visibility: 10mi
Dew Point: 30°   Wind: 15mph
Humidity: 65%   Direction: 90°E
Pressure: 29.91"   Gusts: NA
Location:  39.83°N, 80.65°W
Report Text: KHLG 230053Z 09013KT 10SM CLR 05/M01 A2991 RMK AO2 SLP142 T00501011
Loading
Personal Weather Stations






























Interactive Weather Map New forecast layout! Learn more

10-Day Weather Forecast

Advertisements
Track Severe Weather on mobile